createdAt,value
2018-09-17T00:02:10.852Z,99.90
2018-09-17T00:06:19.207Z,99.90
2018-09-17T00:10:27.410Z,99.90
2018-09-17T00:14:35.708Z,99.90
2018-09-17T00:18:43.954Z,99.90
2018-09-17T00:22:52.257Z,99.90
2018-09-17T00:27:00.546Z,99.90
2018-09-17T00:31:08.905Z,99.90
2018-09-17T00:39:25.260Z,99.90
2018-09-17T00:43:33.536Z,99.90
2018-09-17T00:47:41.835Z,99.90
2018-09-17T00:51:50.082Z,99.90
2018-09-17T00:55:58.356Z,99.90
2018-09-17T01:00:06.681Z,99.90
2018-09-17T01:04:15.018Z,99.90
2018-09-17T01:08:23.294Z,99.90
2018-09-17T01:12:31.586Z,99.90
2018-09-17T01:16:39.861Z,99.90
2018-09-17T01:20:48.175Z,99.90
2018-09-17T01:24:56.466Z,99.90
2018-09-17T01:29:04.760Z,99.90
2018-09-17T01:33:13.032Z,99.90
2018-09-17T01:37:21.362Z,99.90
2018-09-17T01:41:29.645Z,99.90
2018-09-17T01:45:37.922Z,99.90
2018-09-17T01:53:54.299Z,99.90
2018-09-17T01:58:02.622Z,99.90
2018-09-17T02:02:11.036Z,99.90
2018-09-17T02:06:19.305Z,99.90
2018-09-17T02:10:27.979Z,99.90
2018-09-17T02:14:36.272Z,99.90
2018-09-17T02:18:44.695Z,99.90
2018-09-17T02:22:52.990Z,99.90
2018-09-17T02:27:01.266Z,99.90
2018-09-17T02:31:09.566Z,99.90
2018-09-17T02:35:17.813Z,99.90
2018-09-17T02:39:26.113Z,99.90
2018-09-17T02:43:34.409Z,99.90
2018-09-17T02:47:42.726Z,99.90
2018-09-17T02:51:52.179Z,99.90
2018-09-17T02:56:00.492Z,99.90
2018-09-17T03:00:09.859Z,99.90
2018-09-17T03:04:18.157Z,99.90
2018-09-17T03:08:26.431Z,99.90
2018-09-17T03:12:34.663Z,99.90
2018-09-17T03:16:54.381Z,99.90
2018-09-17T03:21:03.909Z,99.90
2018-09-17T03:25:12.172Z,99.90
2018-09-17T03:29:20.553Z,99.90
2018-09-17T03:33:29.011Z,99.90
2018-09-17T03:37:37.362Z,99.90
2018-09-17T03:41:45.645Z,99.90
2018-09-17T03:45:53.944Z,99.90
2018-09-17T03:50:02.241Z,99.90
2018-09-17T03:54:10.514Z,99.90
2018-09-17T03:58:18.833Z,99.90
2018-09-17T04:02:27.149Z,99.90
2018-09-17T04:06:35.469Z,99.90
2018-09-17T04:10:43.782Z,99.90
2018-09-17T04:14:52.102Z,99.90
2018-09-17T04:19:00.396Z,99.90
2018-09-17T04:23:08.823Z,99.90
2018-09-17T04:31:25.167Z,99.90
2018-09-17T04:35:33.445Z,99.90
2018-09-17T04:39:41.780Z,99.90
2018-09-17T04:43:50.127Z,99.90
2018-09-17T04:47:58.422Z,99.90
2018-09-17T04:52:06.775Z,99.90
2018-09-17T04:56:15.073Z,99.90
2018-09-17T05:00:23.357Z,99.90
2018-09-17T05:04:31.656Z,99.90
2018-09-17T05:08:39.976Z,99.90
2018-09-17T05:12:48.306Z,99.90
2018-09-17T05:16:56.670Z,99.90
2018-09-17T05:21:05.205Z,99.90
2018-09-17T05:29:21.521Z,99.90
2018-09-17T05:33:29.797Z,99.90
2018-09-17T05:37:38.072Z,99.90
2018-09-17T05:41:46.604Z,99.90
2018-09-17T05:45:54.961Z,99.90
2018-09-17T05:50:03.234Z,99.90
2018-09-17T05:54:11.566Z,99.90
2018-09-17T05:58:19.852Z,99.90
2018-09-17T06:02:28.198Z,99.90
2018-09-17T06:06:36.484Z,99.90
2018-09-17T06:10:44.772Z,99.90
2018-09-17T06:14:53.093Z,99.90
2018-09-17T06:19:01.363Z,99.90
2018-09-17T06:23:09.685Z,99.90
2018-09-17T06:27:18.025Z,99.90
2018-09-17T06:31:26.297Z,99.90
2018-09-17T06:35:34.654Z,99.90
2018-09-17T06:39:42.925Z,99.90
2018-09-17T06:43:51.221Z,99.90
2018-09-17T06:47:59.557Z,99.90
2018-09-17T06:52:07.819Z,99.90
2018-09-17T06:56:16.186Z,99.90
2018-09-17T07:00:24.461Z,99.90
2018-09-17T07:04:32.800Z,99.90
2018-09-17T07:08:41.133Z,99.90
2018-09-17T07:12:49.439Z,99.90
2018-09-17T07:16:57.699Z,99.90
2018-09-17T07:21:06.129Z,99.90
2018-09-17T07:25:14.585Z,99.90
2018-09-17T07:29:22.947Z,99.90
2018-09-17T07:33:31.217Z,99.90
2018-09-17T07:37:39.466Z,99.90
2018-09-17T07:41:47.793Z,99.90
2018-09-17T07:45:56.050Z,99.90
2018-09-17T07:50:04.344Z,99.90
2018-09-17T07:54:12.597Z,99.90
2018-09-17T07:58:20.844Z,99.90
2018-09-17T08:02:29.121Z,99.90
2018-09-17T08:06:37.438Z,99.90
2018-09-17T08:10:45.746Z,99.90
2018-09-17T08:14:54.551Z,99.90
2018-09-17T08:19:02.913Z,99.90
2018-09-17T08:23:11.223Z,99.90
2018-09-17T08:27:19.521Z,99.90
2018-09-17T08:31:28.558Z,99.90
2018-09-17T08:35:36.989Z,99.90
2018-09-17T08:39:45.353Z,99.90
2018-09-17T08:43:53.671Z,99.90
2018-09-17T08:48:02.048Z,99.90
2018-09-17T08:52:10.403Z,99.90
2018-09-17T08:56:20.740Z,99.90
2018-09-17T09:00:34.719Z,99.90
2018-09-17T09:04:48.269Z,99.90
2018-09-17T09:08:56.592Z,99.90
2018-09-17T09:13:08.938Z,99.90
2018-09-17T09:17:17.227Z,99.90
2018-09-17T09:21:25.939Z,99.90
2018-09-17T09:25:34.229Z,99.90
2018-09-17T09:29:42.475Z,99.90
2018-09-17T09:33:50.763Z,99.90
2018-09-17T09:37:59.145Z,99.90
2018-09-17T09:42:07.425Z,99.90
2018-09-17T09:46:15.715Z,99.90
2018-09-17T09:50:24.077Z,99.90
2018-09-17T09:54:32.355Z,99.90
2018-09-17T09:58:40.673Z,99.90
2018-09-17T10:02:54.363Z,99.90
2018-09-17T10:07:02.675Z,99.90
2018-09-17T10:11:24.348Z,99.90
2018-09-17T10:15:39.836Z,99.90
2018-09-17T10:19:50.515Z,99.90
2018-09-17T10:23:58.803Z,99.90
2018-09-17T10:28:07.121Z,99.90
2018-09-17T10:32:15.392Z,99.90
2018-09-17T10:36:23.695Z,99.90
2018-09-17T10:40:32.001Z,99.90
2018-09-17T10:44:40.282Z,99.90
2018-09-17T10:48:48.544Z,99.90
2018-09-17T10:52:56.820Z,99.90
2018-09-17T10:57:05.232Z,99.90
2018-09-17T11:01:13.514Z,99.90
2018-09-17T11:05:21.724Z,99.90
2018-09-17T11:09:30.017Z,99.90
2018-09-17T11:13:38.321Z,99.90
2018-09-17T11:17:46.681Z,99.90
2018-09-17T11:21:54.853Z,99.90
2018-09-17T11:26:03.142Z,99.90
2018-09-17T11:30:11.582Z,99.90
2018-09-17T11:34:19.860Z,99.90
2018-09-17T11:38:28.144Z,99.90
2018-09-17T11:42:36.444Z,99.90
2018-09-17T11:46:44.738Z,99.90
2018-09-17T11:50:52.971Z,99.90
2018-09-17T11:55:01.226Z,99.90
2018-09-17T11:59:09.458Z,99.90
2018-09-17T12:03:23.207Z,99.90
2018-09-17T12:07:34.451Z,99.90
2018-09-17T12:11:43.042Z,99.90
2018-09-17T12:19:59.305Z,99.90
2018-09-17T12:24:07.574Z,99.90
2018-09-17T12:28:15.861Z,99.90
2018-09-17T12:32:24.136Z,99.90
2018-09-17T12:36:32.580Z,99.90
2018-09-17T12:40:40.911Z,99.90
2018-09-17T12:44:49.188Z,99.90
2018-09-17T12:48:57.459Z,99.90
2018-09-17T12:53:05.739Z,99.90
2018-09-17T12:57:14.016Z,99.90
2018-09-17T13:01:22.296Z,99.90
2018-09-17T13:05:30.572Z,99.90
2018-09-17T13:09:38.824Z,99.90
2018-09-17T13:13:47.061Z,99.90
2018-09-17T13:17:55.392Z,99.90
2018-09-17T13:22:03.614Z,99.90
2018-09-17T13:26:11.920Z,99.90
2018-09-17T13:30:20.206Z,99.90
2018-09-17T13:34:28.453Z,99.90
2018-09-17T13:38:36.716Z,99.90
2018-09-17T13:42:45.045Z,99.90
2018-09-17T13:46:53.338Z,99.40
2018-09-17T13:51:01.718Z,98.10
2018-09-17T13:55:10.079Z,98.90
2018-09-17T13:59:18.394Z,97.60
2018-09-17T14:03:26.619Z,99.60
2018-09-17T14:07:34.902Z,98.80
2018-09-17T14:11:43.186Z,99.90
2018-09-17T14:15:56.852Z,98.80
2018-09-17T14:20:05.118Z,99.40
2018-09-17T14:24:13.412Z,96.00
2018-09-17T14:28:21.727Z,96.00
2018-09-17T14:32:35.591Z,96.80
2018-09-17T14:36:43.897Z,95.80
2018-09-17T14:40:52.164Z,95.40
2018-09-17T14:45:00.449Z,93.70
2018-09-17T14:49:08.847Z,95.20
2018-09-17T14:53:17.146Z,94.90
2018-09-17T14:57:25.437Z,96.20
2018-09-17T15:01:33.888Z,94.80
2018-09-17T15:05:42.146Z,95.90
2018-09-17T15:09:50.392Z,95.40
2018-09-17T15:13:58.755Z,96.80
2018-09-17T15:18:07.034Z,96.00
2018-09-17T15:22:15.392Z,95.10
2018-09-17T15:26:23.737Z,94.70
2018-09-17T15:34:40.050Z,94.10
2018-09-17T15:38:48.311Z,95.80
2018-09-17T15:42:56.556Z,96.20
2018-09-17T15:47:04.864Z,97.70
2018-09-17T15:51:13.121Z,98.80
2018-09-17T15:55:21.513Z,97.50
2018-09-17T15:59:29.800Z,98.40
2018-09-17T16:03:38.066Z,97.90
2018-09-17T16:07:46.312Z,96.50
2018-09-17T16:11:54.629Z,96.20
2018-09-17T16:16:02.899Z,96.30
2018-09-17T16:20:11.184Z,96.60
2018-09-17T16:24:19.480Z,97.40
2018-09-17T16:28:27.778Z,96.80
2018-09-17T16:32:36.037Z,97.00
2018-09-17T16:36:44.380Z,98.50
2018-09-17T16:40:52.707Z,97.30
2018-09-17T16:45:00.893Z,98.70
2018-09-17T16:49:09.157Z,99.10
2018-09-17T16:53:17.497Z,99.50
2018-09-17T17:01:33.757Z,99.90
2018-09-17T17:05:42.065Z,99.90
2018-09-17T17:09:50.298Z,99.90
2018-09-17T17:13:58.544Z,99.90
2018-09-17T17:18:06.809Z,99.90
2018-09-17T17:22:15.078Z,99.90
2018-09-17T17:26:23.400Z,99.90
2018-09-17T17:30:31.684Z,99.90
2018-09-17T17:34:39.965Z,99.90
2018-09-17T17:38:48.266Z,99.90
2018-09-17T17:42:56.571Z,99.90
2018-09-17T17:47:04.852Z,99.90
2018-09-17T17:51:13.137Z,99.90
2018-09-17T17:55:21.440Z,99.90
2018-09-17T17:59:29.710Z,99.90
2018-09-17T18:03:37.978Z,99.90
2018-09-17T18:07:46.275Z,99.90
2018-09-17T18:11:54.556Z,99.90
2018-09-17T18:16:02.859Z,99.90
2018-09-17T18:20:11.175Z,99.90
2018-09-17T18:24:19.457Z,99.90
2018-09-17T18:28:27.732Z,99.90
2018-09-17T18:32:36.085Z,99.90
2018-09-17T18:36:44.345Z,99.90
2018-09-17T18:40:52.622Z,99.90
2018-09-17T18:45:01.055Z,99.90
2018-09-17T18:49:09.332Z,99.90
2018-09-17T18:53:17.601Z,99.90
2018-09-17T18:57:25.969Z,99.90
2018-09-17T19:01:34.247Z,99.90
2018-09-17T19:05:42.660Z,99.90
2018-09-17T19:09:51.309Z,99.90
2018-09-17T19:14:04.952Z,99.90
2018-09-17T19:18:19.046Z,99.90
2018-09-17T19:26:40.962Z,99.90
2018-09-17T19:30:49.248Z,99.90
2018-09-17T19:34:57.517Z,99.90
2018-09-17T19:39:11.714Z,99.90
2018-09-17T19:43:20.018Z,99.90
2018-09-17T19:47:28.326Z,99.90
2018-09-17T19:51:42.035Z,99.90
2018-09-17T19:55:50.343Z,99.90
2018-09-17T19:59:59.573Z,99.90
2018-09-17T20:04:13.046Z,99.90
2018-09-17T20:08:21.369Z,99.90
2018-09-17T20:12:29.651Z,99.90
2018-09-17T20:16:37.924Z,99.90
2018-09-17T20:20:46.241Z,99.90
2018-09-17T20:24:54.525Z,99.90
2018-09-17T20:29:02.805Z,99.90
2018-09-17T20:33:11.435Z,99.90
2018-09-17T20:37:19.800Z,99.90
2018-09-17T20:41:28.015Z,99.90
2018-09-17T20:45:36.293Z,99.90
2018-09-17T20:49:44.666Z,99.90
2018-09-17T20:53:52.942Z,99.90
2018-09-17T20:58:01.210Z,99.90
2018-09-17T21:02:09.595Z,99.90
2018-09-17T21:06:17.905Z,99.90
2018-09-17T21:10:26.152Z,99.90
2018-09-17T21:14:34.445Z,99.90
2018-09-17T21:18:42.866Z,99.90
2018-09-17T21:22:51.155Z,99.90
2018-09-17T21:26:59.410Z,99.90
2018-09-17T21:31:07.783Z,99.90
2018-09-17T21:35:16.144Z,99.90
2018-09-17T21:39:24.334Z,99.90
2018-09-17T21:43:32.624Z,99.90
2018-09-17T21:47:40.974Z,99.90
2018-09-17T21:51:49.258Z,99.90
2018-09-17T21:55:57.542Z,99.90
2018-09-17T22:00:05.866Z,99.90
2018-09-17T22:04:14.163Z,99.90
2018-09-17T22:08:22.578Z,99.90
2018-09-17T22:12:30.878Z,99.90
2018-09-17T22:16:39.152Z,99.90
2018-09-17T22:20:47.445Z,99.90
2018-09-17T22:24:55.769Z,99.90
2018-09-17T22:29:04.096Z,99.90
2018-09-17T22:33:12.331Z,99.90
2018-09-17T22:37:20.622Z,99.90
2018-09-17T22:41:28.853Z,99.90
2018-09-17T22:45:37.121Z,99.90
2018-09-17T22:49:45.389Z,99.90
2018-09-17T22:53:53.687Z,99.90
2018-09-17T22:58:01.958Z,99.90
2018-09-17T23:02:10.534Z,99.90
2018-09-17T23:06:18.888Z,99.90
2018-09-17T23:10:27.191Z,99.90
2018-09-17T23:14:35.450Z,99.90
2018-09-17T23:18:43.828Z,99.90
2018-09-17T23:22:52.102Z,99.90
2018-09-17T23:27:00.424Z,99.90
2018-09-17T23:31:08.726Z,99.90
2018-09-17T23:35:17.022Z,99.90
2018-09-17T23:39:25.265Z,99.90
2018-09-17T23:43:33.661Z,99.90
2018-09-17T23:47:41.970Z,99.90
2018-09-17T23:51:50.247Z,99.90
2018-09-17T23:55:58.591Z,99.90
